Time;durP1;ratioP1;P1;durP2;ratioP2;P2;SDS_P1;SDS_P2;PMS_P1;PMS_P2;Temp;Humidity;BMP_temperature;BMP_pressure;BME280_temperature;BME280_humidity;BME280_pressure;Samples;Min_cycle;Max_cycle;Signal;HPM_P1;HPM_P2
2023/10/24 00:00:59;;;;;;;4.45;1.08;;;;;;;;;;5017636;28;20022;-30
2023/10/24 00:03:25;;;;;;;1.85;0.70;;;;;;;;;;5016872;28;20484;-29
2023/10/24 00:05:52;;;;;;;1.73;1.00;;;;;;;;;;5017124;28;20053;-30
2023/10/24 00:08:18;;;;;;;1.73;0.73;;;;;;;;;;5017323;28;20030;-31
2023/10/24 00:10:45;;;;;;;0.77;0.77;;;;;;;;;;5017031;28;20033;-30
2023/10/24 00:13:11;;;;;;;0.50;0.50;;;;;;;;;;5016909;28;20074;-30
2023/10/24 00:15:37;;;;;;;1.30;0.70;;;;;;;;;;5016927;28;20025;-30
2023/10/24 00:18:03;;;;;;;2.00;0.98;;;;;;;;;;5016872;28;20029;-29
2023/10/24 00:20:29;;;;;;;2.17;0.88;;;;;;;;;;5017280;28;20060;-30
2023/10/24 00:22:56;;;;;;;0.90;0.90;;;;;;;;;;5016706;28;20025;-32
2023/10/24 00:25:22;;;;;;;1.48;1.13;;;;;;;;;;5016488;28;20026;-35
2023/10/24 00:27:48;;;;;;;0.95;0.80;;;;;;;;;;5016954;28;20341;-30
2023/10/24 00:30:14;;;;;;;1.30;0.73;;;;;;;;;;5016917;28;20420;-29
2023/10/24 00:32:40;;;;;;;0.70;0.70;;;;;;;;;;5016510;28;20114;-28
2023/10/24 00:35:06;;;;;;;4.85;0.70;;;;;;;;;;5016805;28;20037;-31
2023/10/24 00:37:32;;;;;;;1.65;1.08;;;;;;;;;;5016545;28;20022;-26
2023/10/24 00:39:59;;;;;;;3.83;1.75;;;;;;;;;;5016384;28;20030;-29
2023/10/24 00:42:25;;;;;;;0.93;0.70;;;;;;;;;;5016560;28;20026;-29
2023/10/24 00:44:51;;;;;;;2.30;0.70;;;;;;;;;;5016332;28;20418;-31
2023/10/24 00:47:17;;;;;;;1.77;0.93;;;;;;;;;;5016601;28;20037;-30
2023/10/24 00:49:44;;;;;;;2.47;1.00;;;;;;;;;;5016570;28;20137;-29
2023/10/24 00:52:10;;;;;;;3.17;0.70;;;;;;;;;;5016176;28;20040;-29
2023/10/24 00:54:36;;;;;;;1.55;0.70;;;;;;;;;;5016193;28;20022;-31
2023/10/24 00:57:04;;;;;;;0.88;0.60;;;;;;;;;;5016147;28;20026;-26
2023/10/24 00:59:30;;;;;;;2.35;0.82;;;;;;;;;;5016294;28;20038;-31
2023/10/24 01:01:58;;;;;;;1.77;0.70;;;;;;;;;;5015090;28;20353;-31
2023/10/24 01:04:24;;;;;;;1.73;0.63;;;;;;;;;;5015843;28;20121;-29
2023/10/24 01:06:50;;;;;;;2.30;0.82;;;;;;;;;;5016018;28;20028;-27
2023/10/24 01:09:16;;;;;;;1.23;0.70;;;;;;;;;;5016180;28;20416;-31
2023/10/24 01:11:43;;;;;;;1.73;0.90;;;;;;;;;;5016173;28;20405;-28
2023/10/24 01:14:09;;;;;;;1.10;0.68;;;;;;;;;;5015877;28;20475;-28
2023/10/24 01:16:41;;;;;;;2.17;0.80;;;;;;;;;;5015769;28;20109;-31
2023/10/24 01:19:07;;;;;;;1.38;0.70;;;;;;;;;;5015969;28;20026;-32
2023/10/24 01:21:33;;;;;;;1.38;0.75;;;;;;;;;;5015936;28;20029;-28
2023/10/24 01:24:00;;;;;;;1.60;0.88;;;;;;;;;;5015627;28;20038;-32
2023/10/24 01:26:27;;;;;;;1.48;0.60;;;;;;;;;;5015929;28;20361;-31
2023/10/24 01:28:53;;;;;;;0.60;0.60;;;;;;;;;;5015536;28;20372;-28
2023/10/24 01:31:19;;;;;;;1.40;0.93;;;;;;;;;;5015484;28;20056;-30
2023/10/24 01:33:46;;;;;;;1.95;1.10;;;;;;;;;;5014460;28;20025;-28
2023/10/24 01:36:12;;;;;;;0.70;0.70;;;;;;;;;;5015393;28;20100;-28
2023/10/24 01:38:38;;;;;;;1.63;0.93;;;;;;;;;;5015247;28;20105;-28
2023/10/24 01:41:04;;;;;;;2.50;0.80;;;;;;;;;;5015578;28;20053;-32
2023/10/24 01:43:30;;;;;;;2.63;1.08;;;;;;;;;;5015542;28;20030;-26
2023/10/24 01:45:56;;;;;;;1.00;0.80;;;;;;;;;;5015549;28;20437;-31
2023/10/24 01:48:23;;;;;;;0.98;0.80;;;;;;;;;;5015547;28;20053;-30
2023/10/24 01:50:49;;;;;;;1.33;1.02;;;;;;;;;;5015450;28;20030;-30
2023/10/24 01:53:15;;;;;;;2.67;0.70;;;;;;;;;;5014159;28;20026;-31
2023/10/24 01:55:42;;;;;;;0.57;0.50;;;;;;;;;;5015167;28;20036;-29
2023/10/24 01:58:08;;;;;;;1.13;1.02;;;;;;;;;;5015068;28;20033;-27
2023/10/24 02:00:34;;;;;;;0.75;0.60;;;;;;;;;;5015002;28;20091;-32
2023/10/24 02:03:00;;;;;;;1.27;1.00;;;;;;;;;;5014927;28;20381;-25
2023/10/24 02:05:26;;;;;;;1.35;1.00;;;;;;;;;;5015256;28;20022;-30
2023/10/24 02:07:52;;;;;;;0.90;0.60;;;;;;;;;;5015507;28;20022;-32
2023/10/24 02:10:19;;;;;;;0.57;0.57;;;;;;;;;;5015216;28;20412;-28
2023/10/24 02:12:46;;;;;;;0.82;0.80;;;;;;;;;;5014903;28;20025;-30
2023/10/24 02:15:12;;;;;;;2.85;0.90;;;;;;;;;;5014895;28;20037;-31
2023/10/24 02:17:41;;;;;;;0.60;0.60;;;;;;;;;;5015137;28;20033;-29
2023/10/24 02:20:08;;;;;;;2.58;0.80;;;;;;;;;;5014704;28;20034;-30
2023/10/24 02:22:34;;;;;;;0.60;0.50;;;;;;;;;;5013759;28;20464;-28
2023/10/24 02:25:00;;;;;;;2.00;0.77;;;;;;;;;;5014810;28;20034;-29
2023/10/24 02:27:27;;;;;;;0.90;0.90;;;;;;;;;;5015045;28;20044;-30
2023/10/24 02:29:54;;;;;;;0.43;0.40;;;;;;;;;;5014760;28;20029;-29
2023/10/24 02:32:20;;;;;;;0.90;0.82;;;;;;;;;;5014631;28;20026;-30
2023/10/24 02:34:49;;;;;;;0.60;0.52;;;;;;;;;;5013788;28;20025;-28
2023/10/24 02:37:16;;;;;;;0.88;0.80;;;;;;;;;;5014976;28;20053;-29
2023/10/24 02:39:42;;;;;;;0.60;0.60;;;;;;;;;;5014854;28;20109;-30
2023/10/24 02:42:08;;;;;;;0.80;0.80;;;;;;;;;;5014650;28;20029;-27
2023/10/24 02:44:34;;;;;;;0.90;0.60;;;;;;;;;;5014941;28;20137;-29
2023/10/24 02:47:00;;;;;;;0.65;0.65;;;;;;;;;;5014627;28;20104;-29
2023/10/24 02:49:27;;;;;;;0.52;0.52;;;;;;;;;;5017502;28;20025;-31
2023/10/24 02:51:53;;;;;;;0.73;0.70;;;;;;;;;;5018409;28;20068;-29
2023/10/24 02:54:19;;;;;;;0.85;0.75;;;;;;;;;;5018712;28;20030;-29
2023/10/24 02:56:45;;;;;;;0.80;0.50;;;;;;;;;;5018662;28;20048;-28
2023/10/24 02:59:12;;;;;;;1.88;0.77;;;;;;;;;;5018333;28;20480;-30
2023/10/24 03:01:38;;;;;;;2.00;1.00;;;;;;;;;;5018326;28;20467;-30
2023/10/24 03:04:04;;;;;;;0.88;0.75;;;;;;;;;;5018057;28;20357;-29
2023/10/24 03:06:31;;;;;;;1.95;0.93;;;;;;;;;;5018753;28;20046;-30
2023/10/24 03:08:57;;;;;;;1.05;0.80;;;;;;;;;;5018439;28;20112;-31
2023/10/24 03:11:24;;;;;;;0.73;0.50;;;;;;;;;;5018142;28;20369;-29
2023/10/24 03:13:50;;;;;;;3.15;1.08;;;;;;;;;;5018071;28;20083;-31
2023/10/24 03:16:16;;;;;;;1.00;0.70;;;;;;;;;;5018584;28;20022;-29
2023/10/24 03:18:43;;;;;;;2.22;1.30;;;;;;;;;;5017055;28;20041;-30
2023/10/24 03:21:09;;;;;;;0.90;0.77;;;;;;;;;;5018157;28;20109;-31
2023/10/24 03:23:35;;;;;;;1.30;0.82;;;;;;;;;;5017862;28;20032;-30
2023/10/24 03:26:04;;;;;;;0.60;0.52;;;;;;;;;;5017855;28;20018;-32
2023/10/24 03:28:31;;;;;;;1.38;1.02;;;;;;;;;;5017826;28;20113;-29
2023/10/24 03:31:03;;;;;;;1.10;0.57;;;;;;;;;;5017785;28;20041;-29
2023/10/24 03:33:31;;;;;;;0.80;0.80;;;;;;;;;;5017636;28;20069;-29
2023/10/24 03:35:57;;;;;;;0.60;0.60;;;;;;;;;;5018212;28;20026;-30
2023/10/24 03:38:23;;;;;;;1.23;0.70;;;;;;;;;;5017897;28;20088;-30
2023/10/24 03:40:50;;;;;;;0.80;0.70;;;;;;;;;;5017422;28;20021;-31
2023/10/24 03:43:16;;;;;;;1.17;0.75;;;;;;;;;;5016480;28;20060;-30
2023/10/24 03:45:42;;;;;;;0.80;0.80;;;;;;;;;;5017768;28;20030;-29
2023/10/24 03:48:08;;;;;;;1.33;0.77;;;;;;;;;;5016525;28;20469;-30
2023/10/24 03:50:38;;;;;;;1.35;1.05;;;;;;;;;;5017407;28;20165;-30
2023/10/24 03:53:05;;;;;;;1.38;1.08;;;;;;;;;;5017204;28;20037;-29
2023/10/24 03:55:31;;;;;;;0.75;0.75;;;;;;;;;;5017218;28;20026;-30
2023/10/24 03:57:57;;;;;;;1.27;0.70;;;;;;;;;;5017246;28;20041;-27
2023/10/24 04:00:24;;;;;;;1.33;0.77;;;;;;;;;;5016444;28;20030;-28
2023/10/24 04:02:54;;;;;;;0.47;0.47;;;;;;;;;;5015911;28;20046;-35
2023/10/24 04:05:20;;;;;;;2.45;0.82;;;;;;;;;;5017026;28;20022;-28
2023/10/24 04:07:46;;;;;;;1.17;0.90;;;;;;;;;;5016731;28;20029;-30
2023/10/24 04:10:14;;;;;;;1.50;0.90;;;;;;;;;;5017134;28;20026;-29
2023/10/24 04:12:40;;;;;;;0.80;0.80;;;;;;;;;;5016609;28;20034;-29
2023/10/24 04:15:07;;;;;;;0.60;0.60;;;;;;;;;;5015994;28;20058;-29
2023/10/24 04:17:33;;;;;;;0.63;0.63;;;;;;;;;;5016879;28;20030;-28
2023/10/24 04:20:00;;;;;;;1.08;1.00;;;;;;;;;;5017125;28;20041;-32
2023/10/24 04:22:27;;;;;;;2.00;1.17;;;;;;;;;;5017019;28;20390;-30
2023/10/24 04:24:53;;;;;;;0.85;0.70;;;;;;;;;;5016605;28;20022;-28
2023/10/24 04:27:19;;;;;;;0.90;0.65;;;;;;;;;;5015592;28;20034;-29
2023/10/24 04:29:46;;;;;;;0.70;0.70;;;;;;;;;;5016538;28;20070;-32
2023/10/24 04:32:12;;;;;;;1.27;0.63;;;;;;;;;;5015527;28;20037;-31
2023/10/24 04:34:38;;;;;;;2.92;0.82;;;;;;;;;;5016537;28;20465;-32
2023/10/24 04:37:05;;;;;;;0.93;0.68;;;;;;;;;;5016413;28;20105;-30
2023/10/24 04:39:31;;;;;;;0.90;0.90;;;;;;;;;;5016503;28;20449;-30
2023/10/24 04:41:57;;;;;;;1.35;0.65;;;;;;;;;;5016212;28;20053;-31
2023/10/24 04:44:23;;;;;;;0.95;0.57;;;;;;;;;;5016222;28;20053;-30
2023/10/24 04:46:50;;;;;;;1.75;0.85;;;;;;;;;;5016390;28;20030;-32
2023/10/24 04:49:17;;;;;;;1.20;0.65;;;;;;;;;;5016117;28;20031;-31
2023/10/24 04:51:43;;;;;;;2.13;0.70;;;;;;;;;;5016312;28;20489;-30
2023/10/24 04:54:09;;;;;;;4.25;0.70;;;;;;;;;;5016023;28;20022;-30
2023/10/24 04:56:35;;;;;;;0.73;0.68;;;;;;;;;;5015804;28;20393;-28
2023/10/24 04:59:02;;;;;;;2.25;0.80;;;;;;;;;;5016016;28;20054;-31
2023/10/24 05:01:29;;;;;;;3.75;0.73;;;;;;;;;;5016141;28;20080;-28
2023/10/24 05:03:55;;;;;;;1.95;0.60;;;;;;;;;;5015720;28;20373;-31
2023/10/24 05:06:21;;;;;;;4.20;1.23;;;;;;;;;;5016064;28;20022;-28
2023/10/24 05:08:48;;;;;;;1.05;1.00;;;;;;;;;;5016094;28;20026;-37
2023/10/24 05:11:14;;;;;;;2.35;1.00;;;;;;;;;;5015967;28;20037;-31
2023/10/24 05:13:40;;;;;;;5.25;1.00;;;;;;;;;;5015831;28;20033;-26
2023/10/24 05:16:06;;;;;;;1.75;1.20;;;;;;;;;;5016218;28;20026;-32
2023/10/24 05:18:32;;;;;;;5.70;1.38;;;;;;;;;;5014719;28;20026;-30
2023/10/24 05:20:59;;;;;;;6.07;3.10;;;;;;;;;;5015621;28;20044;-30
2023/10/24 05:23:25;;;;;;;1.35;0.80;;;;;;;;;;5015681;28;20353;-31
2023/10/24 05:25:51;;;;;;;4.38;2.05;;;;;;;;;;5016537;28;20100;-31
2023/10/24 05:28:17;;;;;;;1.23;0.90;;;;;;;;;;5015741;28;20107;-31
2023/10/24 05:30:44;;;;;;;3.08;1.63;;;;;;;;;;5015441;28;20029;-29
2023/10/24 05:33:11;;;;;;;3.03;0.82;;;;;;;;;;5015655;28;20026;-31
2023/10/24 05:35:37;;;;;;;1.52;0.70;;;;;;;;;;5015857;28;20041;-28
2023/10/24 05:38:03;;;;;;;1.20;0.80;;;;;;;;;;5015322;28;20050;-28
2023/10/24 05:40:30;;;;;;;0.63;0.63;;;;;;;;;;5015285;28;20488;-31
2023/10/24 05:42:56;;;;;;;3.97;1.15;;;;;;;;;;5015124;28;20097;-31
2023/10/24 05:45:23;;;;;;;3.03;1.70;;;;;;;;;;5015551;28;20042;-30
2023/10/24 05:47:50;;;;;;;1.33;0.68;;;;;;;;;;5015434;28;20026;-32
2023/10/24 05:50:18;;;;;;;2.45;0.68;;;;;;;;;;5014524;28;20105;-32
2023/10/24 05:52:45;;;;;;;2.20;1.13;;;;;;;;;;5015454;28;20400;-33
2023/10/24 05:55:11;;;;;;;1.77;0.88;;;;;;;;;;5015481;28;20097;-32
2023/10/24 05:57:37;;;;;;;1.67;0.60;;;;;;;;;;5015151;28;20364;-32
2023/10/24 06:00:03;;;;;;;4.07;2.05;;;;;;;;;;5015008;28;20360;-28
2023/10/24 06:02:30;;;;;;;2.30;0.88;;;;;;;;;;5014389;28;20456;-33
2023/10/24 06:04:56;;;;;;;1.77;0.73;;;;;;;;;;5015104;28;20025;-29
2023/10/24 06:07:23;;;;;;;2.10;1.05;;;;;;;;;;5015112;28;20037;-30
2023/10/24 06:09:49;;;;;;;0.95;0.80;;;;;;;;;;5014670;28;20026;-30
2023/10/24 06:12:15;;;;;;;2.40;1.05;;;;;;;;;;5014451;28;20034;-29
2023/10/24 06:14:42;;;;;;;1.48;0.85;;;;;;;;;;5015019;28;20105;-29
2023/10/24 06:17:08;;;;;;;1.20;0.85;;;;;;;;;;5014935;28;20034;-31
2023/10/24 06:19:39;;;;;;;1.77;1.30;;;;;;;;;;5013454;28;20037;-29
2023/10/24 06:22:06;;;;;;;2.70;0.95;;;;;;;;;;5014347;28;20022;-30
2023/10/24 06:24:32;;;;;;;1.55;0.73;;;;;;;;;;5014281;28;20460;-31
2023/10/24 06:26:59;;;;;;;2.83;0.80;;;;;;;;;;5014521;28;20025;-31
2023/10/24 06:29:25;;;;;;;1.77;1.13;;;;;;;;;;5014252;28;20113;-29
2023/10/24 06:31:51;;;;;;;6.57;0.80;;;;;;;;;;5014414;28;20021;-34
2023/10/24 06:34:18;;;;;;;2.25;0.90;;;;;;;;;;5014445;28;20045;-28
2023/10/24 06:36:44;;;;;;;1.30;1.00;;;;;;;;;;5014487;28;20030;-32
2023/10/24 06:39:10;;;;;;;2.20;0.95;;;;;;;;;;5014466;28;20025;-27
2023/10/24 06:41:36;;;;;;;2.50;0.85;;;;;;;;;;5014432;28;20080;-28
2023/10/24 06:44:03;;;;;;;1.45;1.23;;;;;;;;;;5014390;28;20029;-29
2023/10/24 06:46:29;;;;;;;0.90;0.90;;;;;;;;;;5014710;28;20037;-28
2023/10/24 06:48:55;;;;;;;4.22;0.88;;;;;;;;;;5014359;28;20045;-31
2023/10/24 06:51:21;;;;;;;1.73;0.75;;;;;;;;;;5014374;28;20026;-31
2023/10/24 06:53:47;;;;;;;0.95;0.82;;;;;;;;;;5014274;28;20423;-30
2023/10/24 06:56:13;;;;;;;1.88;0.90;;;;;;;;;;5013377;28;20048;-32
2023/10/24 06:58:40;;;;;;;4.05;1.40;;;;;;;;;;5015312;28;20030;-28
2023/10/24 07:01:06;;;;;;;1.70;1.10;;;;;;;;;;5014174;28;20026;-32
2023/10/24 07:03:32;;;;;;;5.70;2.17;;;;;;;;;;5013036;28;20448;-30
2023/10/24 07:05:59;;;;;;;4.18;1.45;;;;;;;;;;5014391;28;20030;-31
2023/10/24 07:08:25;;;;;;;3.35;0.93;;;;;;;;;;5014445;28;20076;-30
2023/10/24 07:10:51;;;;;;;1.77;0.82;;;;;;;;;;5014164;28;20069;-31
2023/10/24 07:13:18;;;;;;;1.40;0.85;;;;;;;;;;5013966;28;20155;-30
2023/10/24 07:15:44;;;;;;;3.50;0.98;;;;;;;;;;5013131;28;20026;-30
2023/10/24 07:18:12;;;;;;;1.50;0.85;;;;;;;;;;5014433;28;20030;-30
2023/10/24 07:20:39;;;;;;;6.30;1.50;;;;;;;;;;5014259;28;20473;-30
2023/10/24 07:23:05;;;;;;;1.10;0.95;;;;;;;;;;5013894;28;20437;-30
2023/10/24 07:25:32;;;;;;;2.88;1.08;;;;;;;;;;5014367;28;20353;-28
2023/10/24 07:27:58;;;;;;;2.08;0.77;;;;;;;;;;5013996;28;20018;-30
2023/10/24 07:30:25;;;;;;;2.53;0.90;;;;;;;;;;5014258;28;20419;-29
2023/10/24 07:32:54;;;;;;;1.58;0.90;;;;;;;;;;5012891;28;20342;-30
2023/10/24 07:35:21;;;;;;;3.67;1.25;;;;;;;;;;5014121;28;20361;-28
2023/10/24 07:37:47;;;;;;;3.00;1.10;;;;;;;;;;5017740;28;20029;-31
2023/10/24 07:40:13;;;;;;;1.45;1.20;;;;;;;;;;5017848;28;20474;-30
2023/10/24 07:42:40;;;;;;;1.85;0.93;;;;;;;;;;5017389;28;20026;-30
2023/10/24 07:45:06;;;;;;;1.30;1.20;;;;;;;;;;5017512;28;20338;-31
2023/10/24 07:47:32;;;;;;;5.43;1.05;;;;;;;;;;5017234;28;20022;-31
2023/10/24 07:49:59;;;;;;;2.35;1.08;;;;;;;;;;5017548;28;20141;-28
2023/10/24 07:52:25;;;;;;;2.70;0.85;;;;;;;;;;5016077;28;20022;-32
2023/10/24 07:54:52;;;;;;;3.90;1.25;;;;;;;;;;5016133;28;20087;-27
2023/10/24 07:57:18;;;;;;;3.33;1.25;;;;;;;;;;5017326;28;20030;-31
2023/10/24 07:59:44;;;;;;;3.33;1.10;;;;;;;;;;5016976;28;20022;-30
2023/10/24 08:02:10;;;;;;;2.35;1.05;;;;;;;;;;5016735;28;20022;-32
2023/10/24 08:04:36;;;;;;;1.58;0.93;;;;;;;;;;5017277;28;20349;-31
2023/10/24 08:07:03;;;;;;;2.45;0.77;;;;;;;;;;5017191;28;20037;-30
2023/10/24 08:09:29;;;;;;;3.75;1.02;;;;;;;;;;5017285;28;20018;-33
2023/10/24 08:11:55;;;;;;;0.98;0.88;;;;;;;;;;5017189;28;20022;-30
2023/10/24 08:14:22;;;;;;;6.40;1.33;;;;;;;;;;5015978;28;20050;-32
2023/10/24 08:16:48;;;;;;;1.48;1.38;;;;;;;;;;5017044;28;20471;-31
2023/10/24 08:19:14;;;;;;;1.33;0.95;;;;;;;;;;5017057;28;20026;-30
2023/10/24 08:21:40;;;;;;;2.47;1.13;;;;;;;;;;5015694;28;20060;-30
2023/10/24 08:24:06;;;;;;;2.47;1.13;;;;;;;;;;5016925;28;20053;-28
2023/10/24 08:26:33;;;;;;;2.17;1.00;;;;;;;;;;5017155;28;20385;-29
2023/10/24 08:28:59;;;;;;;1.15;1.00;;;;;;;;;;5016268;28;20044;-31
2023/10/24 08:31:25;;;;;;;1.25;0.88;;;;;;;;;;5016165;28;20022;-27
2023/10/24 08:33:51;;;;;;;5.97;1.10;;;;;;;;;;5016295;28;20404;-31
2023/10/24 08:36:18;;;;;;;2.00;1.10;;;;;;;;;;5016504;28;20040;-27
2023/10/24 08:38:45;;;;;;;1.98;0.90;;;;;;;;;;5016572;28;20029;-32
2023/10/24 08:41:11;;;;;;;1.38;1.20;;;;;;;;;;5016681;28;20030;-30
2023/10/24 08:43:37;;;;;;;6.57;1.63;;;;;;;;;;5016056;28;20026;-29
2023/10/24 08:46:04;;;;;;;3.30;1.13;;;;;;;;;;5015677;28;20045;-31
2023/10/24 08:48:31;;;;;;;1.45;1.00;;;;;;;;;;5016003;28;20445;-30
2023/10/24 08:50:57;;;;;;;1.33;0.90;;;;;;;;;;5016261;28;20038;-28
2023/10/24 08:53:23;;;;;;;2.42;1.17;;;;;;;;;;5015758;28;20040;-32
2023/10/24 08:55:51;;;;;;;2.33;1.20;;;;;;;;;;5016142;28;20040;-28
2023/10/24 08:58:19;;;;;;;1.48;1.10;;;;;;;;;;5015632;28;20058;-26
2023/10/24 09:00:46;;;;;;;6.75;2.28;;;;;;;;;;5015640;28;20029;-32
2023/10/24 09:03:14;;;;;;;4.80;1.10;;;;;;;;;;5015302;28;20380;-31
2023/10/24 09:05:42;;;;;;;2.00;1.45;;;;;;;;;;5015472;28;20034;-29
2023/10/24 09:08:08;;;;;;;2.38;1.02;;;;;;;;;;5014362;28;20449;-31
2023/10/24 09:10:34;;;;;;;2.45;1.00;;;;;;;;;;5015807;28;20037;-30
2023/10/24 09:13:04;;;;;;;1.98;1.05;;;;;;;;;;5015550;28;20392;-31
2023/10/24 09:15:33;;;;;;;5.38;1.13;;;;;;;;;;5015566;28;20056;-27
2023/10/24 09:18:02;;;;;;;3.20;1.48;;;;;;;;;;5015628;28;20077;-29
2023/10/24 09:20:30;;;;;;;8.55;2.50;;;;;;;;;;5015418;28;20026;-28
2023/10/24 09:23:03;;;;;;;1.13;0.80;;;;;;;;;;5015241;28;20097;-30
2023/10/24 09:25:29;;;;;;;3.58;1.48;;;;;;;;;;5015071;28;20026;-27
2023/10/24 09:28:13;;;;;;;2.10;0.85;;;;;;;;;;5015466;28;20029;-32
2023/10/24 09:30:40;;;;;;;3.17;1.20;;;;;;;;;;5015687;28;20100;-30
2023/10/24 09:33:06;;;;;;;1.52;0.88;;;;;;;;;;5015244;28;20092;-29
2023/10/24 09:35:32;;;;;;;1.48;1.33;;;;;;;;;;5015737;28;20416;-31
2023/10/24 09:37:59;;;;;;;1.15;0.95;;;;;;;;;;5014350;28;20117;-33
2023/10/24 09:40:33;;;;;;;1.85;1.10;;;;;;;;;;5014100;28;20410;-31
2023/10/24 09:43:00;;;;;;;1.27;0.98;;;;;;;;;;5015206;28;20416;-28
2023/10/24 09:45:26;;;;;;;2.42;1.20;;;;;;;;;;5015823;28;20030;-30
2023/10/24 09:47:53;;;;;;;0.85;0.82;;;;;;;;;;5015488;28;20032;-32
2023/10/24 09:50:19;;;;;;;2.00;1.15;;;;;;;;;;5015428;28;20026;-30
2023/10/24 09:52:46;;;;;;;2.55;0.98;;;;;;;;;;5014989;28;20104;-28
2023/10/24 09:55:14;;;;;;;3.15;1.10;;;;;;;;;;5014959;28;20026;-31
2023/10/24 09:57:40;;;;;;;2.80;1.70;;;;;;;;;;5013127;28;20030;-31
2023/10/24 10:00:11;;;;;;;3.53;1.10;;;;;;;;;;5015132;28;20204;-30
2023/10/24 10:02:41;;;;;;;8.15;1.65;;;;;;;;;;5014886;28;20060;-29
2023/10/24 10:05:08;;;;;;;12.38;1.50;;;;;;;;;;5015165;28;20026;-28
2023/10/24 10:07:35;;;;;;;3.63;1.30;;;;;;;;;;5015168;28;20341;-31
2023/10/24 10:10:04;;;;;;;1.60;1.30;;;;;;;;;;5013868;28;20427;-30
2023/10/24 10:12:32;;;;;;;1.33;1.13;;;;;;;;;;5013808;28;20531;-29
2023/10/24 10:15:21;;;;;;;5.85;1.30;;;;;;;;;;5014827;28;20110;-29
2023/10/24 10:17:53;;;;;;;2.83;1.20;;;;;;;;;;5015437;28;20101;-28
2023/10/24 10:20:19;;;;;;;1.40;1.10;;;;;;;;;;5015276;28;20037;-27
2023/10/24 10:22:51;;;;;;;3.58;1.00;;;;;;;;;;5014766;28;20021;-30
2023/10/24 10:25:30;;;;;;;5.82;1.92;;;;;;;;;;5015040;28;20057;-29
2023/10/24 10:27:59;;;;;;;2.40;0.90;;;;;;;;;;5014573;28;20424;-29
2023/10/24 10:30:49;;;;;;;2.88;1.25;;;;;;;;;;5014519;28;20030;-31
2023/10/24 10:33:22;;;;;;;2.42;1.52;;;;;;;;;;5014821;28;20352;-29
2023/10/24 10:35:55;;;;;;;3.25;1.00;;;;;;;;;;5014572;28;20066;-30
2023/10/24 10:38:39;;;;;;;2.92;1.08;;;;;;;;;;5014833;28;20045;-29
2023/10/24 10:41:18;;;;;;;2.72;1.20;;;;;;;;;;5014770;28;20026;-31
2023/10/24 10:43:44;;;;;;;3.53;0.90;;;;;;;;;;5014723;28;20025;-30
2023/10/24 10:46:17;;;;;;;1.55;1.13;;;;;;;;;;5014564;28;20099;-30
2023/10/24 10:48:43;;;;;;;8.55;1.15;;;;;;;;;;5014604;28;20022;-28
2023/10/24 10:51:13;;;;;;;5.38;1.30;;;;;;;;;;5014787;28;20105;-31
2023/10/24 10:53:58;;;;;;;1.85;0.98;;;;;;;;;;5014637;28;20397;-30
2023/10/24 10:56:31;;;;;;;1.65;1.38;;;;;;;;;;5014654;28;20376;-29
2023/10/24 10:59:00;;;;;;;4.15;1.48;;;;;;;;;;5013403;28;20108;-26
2023/10/24 11:01:33;;;;;;;2.70;1.08;;;;;;;;;;5014828;28;20026;-28
2023/10/24 11:04:00;;;;;;;2.35;1.17;;;;;;;;;;5014070;28;20393;-31
2023/10/24 11:06:28;;;;;;;1.67;1.58;;;;;;;;;;5014336;28;20101;-31
2023/10/24 11:09:07;;;;;;;3.40;1.20;;;;;;;;;;5014944;28;20034;-31
2023/10/24 11:11:33;;;;;;;1.42;1.20;;;;;;;;;;5018687;28;20113;-27
2023/10/24 11:14:16;;;;;;;6.85;1.52;;;;;;;;;;5018490;28;20331;-30
2023/10/24 11:16:43;;;;;;;1.48;1.00;;;;;;;;;;5017978;28;20038;-28
2023/10/24 11:19:29;;;;;;;3.00;1.52;;;;;;;;;;5018196;28;20029;-32
2023/10/24 11:21:56;;;;;;;7.93;2.58;;;;;;;;;;5017839;28;20048;-27
2023/10/24 11:24:23;;;;;;;2.80;1.00;;;;;;;;;;5017738;28;20453;-28
2023/10/24 11:27:00;;;;;;;5.13;0.98;;;;;;;;;;5017520;28;20029;-29
2023/10/24 11:29:27;;;;;;;4.65;1.02;;;;;;;;;;5017624;28;20092;-31
2023/10/24 11:32:13;;;;;;;2.47;1.35;;;;;;;;;;5017224;28;20034;-30
2023/10/24 11:34:39;;;;;;;4.03;1.40;;;;;;;;;;5017374;28;20026;-27
2023/10/24 11:37:08;;;;;;;2.60;1.30;;;;;;;;;;5017604;28;20385;-30
2023/10/24 11:39:34;;;;;;;3.55;1.20;;;;;;;;;;5017323;28;20030;-32
2023/10/24 11:42:00;;;;;;;12.15;1.90;;;;;;;;;;5017118;28;20026;-29
2023/10/24 11:44:26;;;;;;;4.13;1.13;;;;;;;;;;5017216;28;20026;-31
2023/10/24 11:46:52;;;;;;;4.38;0.90;;;;;;;;;;5017351;28;20022;-28
2023/10/24 11:49:18;;;;;;;5.28;1.30;;;;;;;;;;5016377;28;20029;-31
2023/10/24 11:51:45;;;;;;;1.70;1.33;;;;;;;;;;5017451;28;20033;-29
2023/10/24 11:54:12;;;;;;;1.55;0.98;;;;;;;;;;5017227;28;20034;-30
2023/10/24 11:56:38;;;;;;;6.72;1.23;;;;;;;;;;5017387;28;20025;-27
2023/10/24 11:59:05;;;;;;;2.60;1.52;;;;;;;;;;5017053;28;20030;-30
2023/10/24 12:01:32;;;;;;;4.50;2.00;;;;;;;;;;5016977;28;20030;-32
2023/10/24 12:03:59;;;;;;;2.00;1.27;;;;;;;;;;5016656;28;20050;-30
2023/10/24 12:06:29;;;;;;;4.05;1.27;;;;;;;;;;5017483;28;20057;-30
2023/10/24 12:08:57;;;;;;;3.47;1.27;;;;;;;;;;5016022;28;20072;-30
2023/10/24 12:11:24;;;;;;;10.18;2.72;;;;;;;;;;5016922;28;20061;-29
2023/10/24 12:13:50;;;;;;;4.72;0.98;;;;;;;;;;5016845;28;20040;-30
2023/10/24 12:16:28;;;;;;;4.88;1.40;;;;;;;;;;5016965;28;20357;-33
2023/10/24 12:18:54;;;;;;;1.55;1.27;;;;;;;;;;5016859;28;20045;-30
2023/10/24 12:21:20;;;;;;;1.83;1.05;;;;;;;;;;5015199;28;20030;-32
2023/10/24 12:23:46;;;;;;;3.55;1.00;;;;;;;;;;5017090;28;20022;-30
2023/10/24 12:26:12;;;;;;;5.18;2.55;;;;;;;;;;5016899;28;20346;-26
2023/10/24 12:28:42;;;;;;;6.55;1.58;;;;;;;;;;5015637;28;20384;-30
2023/10/24 12:31:09;;;;;;;5.55;1.35;;;;;;;;;;5017088;28;20025;-31
2023/10/24 12:33:35;;;;;;;5.97;1.42;;;;;;;;;;5016478;28;20112;-31
2023/10/24 12:36:01;;;;;;;3.30;1.30;;;;;;;;;;5016672;28;20049;-29
2023/10/24 12:38:28;;;;;;;2.38;1.23;;;;;;;;;;5016439;28;20447;-26
2023/10/24 12:40:54;;;;;;;4.40;1.13;;;;;;;;;;5015270;28;20034;-28
2023/10/24 12:43:20;;;;;;;3.95;1.40;;;;;;;;;;5016509;28;20101;-31
2023/10/24 12:45:46;;;;;;;4.55;1.20;;;;;;;;;;5016413;28;20097;-26
2023/10/24 12:48:14;;;;;;;1.40;1.30;;;;;;;;;;5015289;28;20523;-30
2023/10/24 12:50:40;;;;;;;3.63;1.20;;;;;;;;;;5016447;28;20104;-30
2023/10/24 12:53:07;;;;;;;3.83;1.10;;;;;;;;;;5016135;28;20068;-30
2023/10/24 12:55:33;;;;;;;3.88;1.30;;;;;;;;;;5016434;28;20030;-31
2023/10/24 12:58:00;;;;;;;1.90;1.17;;;;;;;;;;5016570;28;20030;-27
2023/10/24 13:00:26;;;;;;;3.15;1.17;;;;;;;;;;5016002;28;20058;-26
2023/10/24 13:02:55;;;;;;;2.67;1.40;;;;;;;;;;5015837;28;20124;-30
2023/10/24 13:05:21;;;;;;;5.88;2.85;;;;;;;;;;5015988;28;20022;-30
2023/10/24 13:07:48;;;;;;;5.07;1.02;;;;;;;;;;5015157;28;20468;-27
2023/10/24 13:10:15;;;;;;;3.50;1.45;;;;;;;;;;5016259;28;20030;-29
2023/10/24 13:12:42;;;;;;;2.13;1.17;;;;;;;;;;5016241;28;20467;-27
2023/10/24 13:15:08;;;;;;;3.67;1.98;;;;;;;;;;5015714;28;20030;-29
2023/10/24 13:17:34;;;;;;;3.75;1.08;;;;;;;;;;5015771;28;20026;-29
2023/10/24 13:20:01;;;;;;;2.35;1.30;;;;;;;;;;5016192;28;20049;-29
2023/10/24 13:22:27;;;;;;;2.88;1.00;;;;;;;;;;5015966;28;20120;-32
2023/10/24 13:24:53;;;;;;;4.88;1.45;;;;;;;;;;5016697;28;20050;-30
2023/10/24 13:27:20;;;;;;;9.65;1.40;;;;;;;;;;5015997;28;20441;-31
2023/10/24 13:29:46;;;;;;;1.90;1.35;;;;;;;;;;5015736;28;20036;-29
2023/10/24 13:32:12;;;;;;;4.18;1.10;;;;;;;;;;5015497;28;20030;-30
2023/10/24 13:34:38;;;;;;;4.05;1.58;;;;;;;;;;5014547;28;20110;-31
2023/10/24 13:37:04;;;;;;;5.22;1.65;;;;;;;;;;5015501;28;20022;-27
2023/10/24 13:39:30;;;;;;;2.60;1.13;;;;;;;;;;5015621;28;20022;-30
2023/10/24 13:41:56;;;;;;;9.02;1.20;;;;;;;;;;5015292;28;20021;-31
2023/10/24 13:44:23;;;;;;;8.05;1.58;;;;;;;;;;5015334;28;20104;-31
2023/10/24 13:46:49;;;;;;;4.75;1.38;;;;;;;;;;5015306;28;20029;-28
2023/10/24 13:49:15;;;;;;;1.17;1.08;;;;;;;;;;5015581;28;20465;-26
2023/10/24 13:51:41;;;;;;;2.65;1.20;;;;;;;;;;5015264;28;20025;-29
2023/10/24 13:54:07;;;;;;;3.95;1.23;;;;;;;;;;5014088;28;20026;-28
2023/10/24 13:56:34;;;;;;;3.25;1.25;;;;;;;;;;5015441;28;20048;-32
2023/10/24 13:59:00;;;;;;;3.10;2.10;;;;;;;;;;5015389;28;20041;-29
2023/10/24 14:01:28;;;;;;;5.13;2.60;;;;;;;;;;5015572;28;20038;-30
2023/10/24 14:03:55;;;;;;;2.03;1.15;;;;;;;;;;5014673;28;20424;-30
2023/10/24 14:06:21;;;;;;;3.92;1.30;;;;;;;;;;5014103;28;20060;-27
2023/10/24 14:08:47;;;;;;;7.13;1.80;;;;;;;;;;5015006;28;20030;-31
2023/10/24 14:11:14;;;;;;;4.28;1.38;;;;;;;;;;5013986;28;20080;-31
2023/10/24 14:13:40;;;;;;;2.50;1.17;;;;;;;;;;5015408;28;20358;-29
2023/10/24 14:16:06;;;;;;;8.27;1.77;;;;;;;;;;5015000;28;20097;-26
2023/10/24 14:18:33;;;;;;;2.40;0.98;;;;;;;;;;5015320;28;20087;-29
2023/10/24 14:20:59;;;;;;;2.45;0.98;;;;;;;;;;5014867;28;20101;-31
2023/10/24 14:23:25;;;;;;;4.82;1.50;;;;;;;;;;5013917;28;20022;-28
2023/10/24 14:25:52;;;;;;;4.60;1.40;;;;;;;;;;5015006;28;20022;-31
2023/10/24 14:28:18;;;;;;;3.47;1.27;;;;;;;;;;5014801;28;20054;-30
2023/10/24 14:30:44;;;;;;;1.38;0.93;;;;;;;;;;5015308;28;20047;-30
2023/10/24 14:33:10;;;;;;;5.22;2.30;;;;;;;;;;5015414;28;20030;-29
2023/10/24 14:35:37;;;;;;;3.13;1.70;;;;;;;;;;5015172;28;20022;-30
2023/10/24 14:38:03;;;;;;;4.03;1.13;;;;;;;;;;5014758;28;20409;-30
2023/10/24 14:40:29;;;;;;;1.30;1.17;;;;;;;;;;5015136;28;20030;-28
2023/10/24 14:42:55;;;;;;;3.35;1.40;;;;;;;;;;5014499;28;20045;-30